sensor_id;sensor_type;location;lat;lon;timestamp;noise_LAeq;noise_LA_min;noise_LA_max;noise_LA01;noise_LA95
50333;Laerm;36239;48.132;-1.210;2024-02-26T00:01:36;37.61;32.93;40.79;;
50333;Laerm;36239;48.132;-1.210;2024-02-26T00:04:02;37.82;33.44;41.46;;
50333;Laerm;36239;48.132;-1.210;2024-02-26T00:06:32;37.74;33.44;41.75;;
50333;Laerm;36239;48.132;-1.210;2024-02-26T00:08:58;37.70;33.44;49.98;;
50333;Laerm;36239;48.132;-1.210;2024-02-26T00:11:24;37.72;33.44;42.41;;
50333;Laerm;36239;48.132;-1.210;2024-02-26T00:13:50;37.74;32.93;42.93;;
50333;Laerm;36239;48.132;-1.210;2024-02-26T00:16:16;37.86;33.44;41.38;;
50333;Laerm;36239;48.132;-1.210;2024-02-26T00:18:42;37.62;33.44;41.75;;
50333;Laerm;36239;48.132;-1.210;2024-02-26T00:21:08;37.61;33.44;40.62;;
50333;Laerm;36239;48.132;-1.210;2024-02-26T00:23:34;37.66;33.44;43.34;;
50333;Laerm;36239;48.132;-1.210;2024-02-26T00:26:00;37.62;32.93;40.71;;
50333;Laerm;36239;48.132;-1.210;2024-02-26T00:28:26;37.36;32.93;42.09;;
50333;Laerm;36239;48.132;-1.210;2024-02-26T00:30:53;37.76;33.44;41.30;;
50333;Laerm;36239;48.132;-1.210;2024-02-26T00:33:21;44.76;35.59;49.93;;
50333;Laerm;36239;48.132;-1.210;2024-02-26T00:35:48;45.80;43.44;49.29;;
50333;Laerm;36239;48.132;-1.210;2024-02-26T00:38:14;37.74;33.44;46.91;;
50333;Laerm;36239;48.132;-1.210;2024-02-26T00:40:40;37.52;33.44;41.89;;
50333;Laerm;36239;48.132;-1.210;2024-02-26T00:43:09;37.50;32.93;42.71;;
50333;Laerm;36239;48.132;-1.210;2024-02-26T00:45:35;37.52;33.44;42.22;;
50333;Laerm;36239;48.132;-1.210;2024-02-26T00:48:01;37.51;32.93;42.53;;
50333;Laerm;36239;48.132;-1.210;2024-02-26T00:50:31;37.56;33.44;41.46;;
50333;Laerm;36239;48.132;-1.210;2024-02-26T00:52:57;37.68;32.93;45.72;;
50333;Laerm;36239;48.132;-1.210;2024-02-26T00:55:23;50.91;33.44;65.33;;
50333;Laerm;36239;48.132;-1.210;2024-02-26T00:57:49;37.35;32.93;41.53;;
50333;Laerm;36239;48.132;-1.210;2024-02-26T01:00:15;37.45;32.93;41.75;;
50333;Laerm;36239;48.132;-1.210;2024-02-26T01:02:41;37.47;33.44;42.71;;
50333;Laerm;36239;48.132;-1.210;2024-02-26T01:05:08;37.42;32.35;45.17;;
50333;Laerm;36239;48.132;-1.210;2024-02-26T01:07:37;37.32;32.93;43.39;;
50333;Laerm;36239;48.132;-1.210;2024-02-26T01:10:03;37.38;31.68;41.22;;
50333;Laerm;36239;48.132;-1.210;2024-02-26T01:12:29;37.75;33.44;42.16;;
50333;Laerm;36239;48.132;-1.210;2024-02-26T01:14:55;37.48;32.93;40.80;;
50333;Laerm;36239;48.132;-1.210;2024-02-26T01:17:21;37.47;32.93;41.89;;
50333;Laerm;36239;48.132;-1.210;2024-02-26T01:19:47;37.45;32.93;45.94;;
50333;Laerm;36239;48.132;-1.210;2024-02-26T01:22:13;38.01;32.93;43.54;;
50333;Laerm;36239;48.132;-1.210;2024-02-26T01:24:39;38.00;32.93;41.89;;
50333;Laerm;36239;48.132;-1.210;2024-02-26T01:27:05;37.48;33.44;42.47;;
50333;Laerm;36239;48.132;-1.210;2024-02-26T01:29:33;37.42;33.44;40.88;;
50333;Laerm;36239;48.132;-1.210;2024-02-26T01:31:59;37.45;32.93;44.19;;
50333;Laerm;36239;48.132;-1.210;2024-02-26T01:34:25;37.60;32.93;41.30;;
50333;Laerm;36239;48.132;-1.210;2024-02-26T01:36:51;37.82;33.90;42.71;;
50333;Laerm;36239;48.132;-1.210;2024-02-26T01:39:17;37.53;32.93;41.53;;
50333;Laerm;36239;48.132;-1.210;2024-02-26T01:41:43;37.47;33.44;42.53;;
50333;Laerm;36239;48.132;-1.210;2024-02-26T01:44:11;37.42;32.93;40.62;;
50333;Laerm;36239;48.132;-1.210;2024-02-26T01:46:38;37.44;32.93;41.30;;
50333;Laerm;36239;48.132;-1.210;2024-02-26T01:49:04;37.58;31.68;41.53;;
50333;Laerm;36239;48.132;-1.210;2024-02-26T01:51:30;37.33;32.35;43.04;;
50333;Laerm;36239;48.132;-1.210;2024-02-26T01:53:57;37.34;32.35;41.68;;
50333;Laerm;36239;48.132;-1.210;2024-02-26T01:56:23;37.48;32.93;41.96;;
50333;Laerm;36239;48.132;-1.210;2024-02-26T01:58:54;37.48;33.09;40.89;;
50333;Laerm;36239;48.132;-1.210;2024-02-26T02:01:20;37.51;33.44;43.04;;
50333;Laerm;36239;48.132;-1.210;2024-02-26T02:03:47;37.41;33.44;40.53;;
50333;Laerm;36239;48.132;-1.210;2024-02-26T02:06:13;37.43;32.35;42.88;;
50333;Laerm;36239;48.132;-1.210;2024-02-26T02:08:39;37.39;32.93;41.06;;
50333;Laerm;36239;48.132;-1.210;2024-02-26T02:11:05;37.39;31.68;41.46;;
50333;Laerm;36239;48.132;-1.210;2024-02-26T02:13:32;37.23;32.93;41.89;;
50333;Laerm;36239;48.132;-1.210;2024-02-26T02:15:58;37.26;32.93;41.38;;
50333;Laerm;36239;48.132;-1.210;2024-02-26T02:18:24;37.28;32.93;43.19;;
50333;Laerm;36239;48.132;-1.210;2024-02-26T02:20:50;37.28;32.93;40.80;;
50333;Laerm;36239;48.132;-1.210;2024-02-26T02:23:16;37.43;32.93;41.38;;
50333;Laerm;36239;48.132;-1.210;2024-02-26T02:25:42;37.36;33.44;41.96;;
50333;Laerm;36239;48.132;-1.210;2024-02-26T02:28:08;37.32;32.93;41.06;;
50333;Laerm;36239;48.132;-1.210;2024-02-26T02:30:35;37.45;32.93;41.68;;
50333;Laerm;36239;48.132;-1.210;2024-02-26T02:33:01;37.53;32.35;58.46;;
50333;Laerm;36239;48.132;-1.210;2024-02-26T02:35:27;37.88;32.93;55.46;;
50333;Laerm;36239;48.132;-1.210;2024-02-26T02:37:54;37.29;32.35;43.14;;
50333;Laerm;36239;48.132;-1.210;2024-02-26T02:40:20;37.19;32.93;43.39;;
50333;Laerm;36239;48.132;-1.210;2024-02-26T02:42:46;37.32;32.93;41.30;;
50333;Laerm;36239;48.132;-1.210;2024-02-26T02:45:12;37.32;32.35;41.75;;
50333;Laerm;36239;48.132;-1.210;2024-02-26T02:47:38;37.33;32.93;43.14;;
50333;Laerm;36239;48.132;-1.210;2024-02-26T02:50:04;37.35;32.93;41.53;;
50333;Laerm;36239;48.132;-1.210;2024-02-26T02:52:30;37.24;32.35;41.22;;
50333;Laerm;36239;48.132;-1.210;2024-02-26T02:54:56;37.21;32.35;40.80;;
50333;Laerm;36239;48.132;-1.210;2024-02-26T02:57:22;37.28;33.44;41.53;;
50333;Laerm;36239;48.132;-1.210;2024-02-26T02:59:48;37.26;32.35;41.89;;
50333;Laerm;36239;48.132;-1.210;2024-02-26T03:02:14;37.24;32.93;42.93;;
50333;Laerm;36239;48.132;-1.210;2024-02-26T03:04:40;37.26;32.93;40.80;;
50333;Laerm;36239;48.132;-1.210;2024-02-26T03:07:06;37.32;32.58;41.38;;
50333;Laerm;36239;48.132;-1.210;2024-02-26T03:09:32;37.38;32.93;40.80;;
50333;Laerm;36239;48.132;-1.210;2024-02-26T03:11:58;37.43;32.35;41.46;;
50333;Laerm;36239;48.132;-1.210;2024-02-26T03:14:24;37.44;32.93;41.38;;
50333;Laerm;36239;48.132;-1.210;2024-02-26T03:16:54;43.25;32.93;56.42;;
50333;Laerm;36239;48.132;-1.210;2024-02-26T03:19:20;37.63;32.93;43.34;;
50333;Laerm;36239;48.132;-1.210;2024-02-26T03:21:47;37.25;32.93;41.75;;
50333;Laerm;36239;48.132;-1.210;2024-02-26T03:24:13;40.45;32.93;47.74;;
50333;Laerm;36239;48.132;-1.210;2024-02-26T03:26:39;38.38;32.93;44.97;;
50333;Laerm;36239;48.132;-1.210;2024-02-26T03:29:05;37.29;32.93;41.68;;
50333;Laerm;36239;48.132;-1.210;2024-02-26T03:31:31;37.52;32.93;43.29;;
50333;Laerm;36239;48.132;-1.210;2024-02-26T03:33:57;37.38;32.93;41.30;;
50333;Laerm;36239;48.132;-1.210;2024-02-26T03:36:23;37.55;32.93;42.03;;
50333;Laerm;36239;48.132;-1.210;2024-02-26T03:38:49;37.71;32.93;41.53;;
50333;Laerm;36239;48.132;-1.210;2024-02-26T03:41:15;37.51;33.44;41.06;;
50333;Laerm;36239;48.132;-1.210;2024-02-26T03:43:41;37.77;32.93;41.38;;
50333;Laerm;36239;48.132;-1.210;2024-02-26T03:46:08;37.33;32.93;43.04;;
50333;Laerm;36239;48.132;-1.210;2024-02-26T03:48:35;37.31;31.68;43.49;;
50333;Laerm;36239;48.132;-1.210;2024-02-26T03:51:01;37.30;32.35;42.36;;
50333;Laerm;36239;48.132;-1.210;2024-02-26T03:53:27;39.36;32.58;52.11;;
50333;Laerm;36239;48.132;-1.210;2024-02-26T03:55:53;42.58;33.90;52.06;;
50333;Laerm;36239;48.132;-1.210;2024-02-26T03:58:21;37.63;32.93;42.59;;
50333;Laerm;36239;48.132;-1.210;2024-02-26T04:00:47;41.74;34.69;46.64;;
50333;Laerm;36239;48.132;-1.210;2024-02-26T04:03:13;37.35;32.93;41.30;;
50333;Laerm;36239;48.132;-1.210;2024-02-26T04:05:39;37.27;32.93;42.22;;
50333;Laerm;36239;48.132;-1.210;2024-02-26T04:08:05;37.34;32.93;40.89;;
50333;Laerm;36239;48.132;-1.210;2024-02-26T04:10:33;37.43;33.09;42.03;;
50333;Laerm;36239;48.132;-1.210;2024-02-26T04:13:01;37.40;32.35;40.98;;
50333;Laerm;36239;48.132;-1.210;2024-02-26T04:15:27;37.88;33.44;42.88;;
50333;Laerm;36239;48.132;-1.210;2024-02-26T04:17:53;37.36;33.44;41.61;;
50333;Laerm;36239;48.132;-1.210;2024-02-26T04:20:19;37.33;32.35;42.53;;
50333;Laerm;36239;48.132;-1.210;2024-02-26T04:22:44;37.57;33.44;42.47;;
50333;Laerm;36239;48.132;-1.210;2024-02-26T04:25:11;37.67;33.09;42.22;;
50333;Laerm;36239;48.132;-1.210;2024-02-26T04:27:37;37.50;33.44;43.58;;
50333;Laerm;36239;48.132;-1.210;2024-02-26T04:30:04;37.68;33.44;45.11;;
50333;Laerm;36239;48.132;-1.210;2024-02-26T04:32:30;38.06;33.90;47.22;;
50333;Laerm;36239;48.132;-1.210;2024-02-26T04:34:57;40.37;35.66;47.61;;
50333;Laerm;36239;48.132;-1.210;2024-02-26T04:37:23;38.22;32.93;45.94;;
50333;Laerm;36239;48.132;-1.210;2024-02-26T04:39:49;38.26;33.44;44.19;;
50333;Laerm;36239;48.132;-1.210;2024-02-26T04:42:15;38.38;33.90;44.80;;
50333;Laerm;36239;48.132;-1.210;2024-02-26T04:44:41;41.60;34.31;52.76;;
50333;Laerm;36239;48.132;-1.210;2024-02-26T04:47:07;42.76;40.03;54.12;;
50333;Laerm;36239;48.132;-1.210;2024-02-26T04:49:33;41.80;37.70;48.07;;
50333;Laerm;36239;48.132;-1.210;2024-02-26T04:51:59;40.49;37.12;47.38;;
50333;Laerm;36239;48.132;-1.210;2024-02-26T04:54:25;42.92;37.70;51.80;;
50333;Laerm;36239;48.132;-1.210;2024-02-26T04:56:51;39.21;34.31;45.45;;
50333;Laerm;36239;48.132;-1.210;2024-02-26T04:59:17;38.79;35.04;46.35;;
50333;Laerm;36239;48.132;-1.210;2024-02-26T05:01:44;38.64;33.90;44.45;;
50333;Laerm;36239;48.132;-1.210;2024-02-26T05:04:10;38.03;33.90;43.24;;
50333;Laerm;36239;48.132;-1.210;2024-02-26T05:06:37;38.49;33.90;46.28;;
50333;Laerm;36239;48.132;-1.210;2024-02-26T05:09:03;38.49;34.31;44.51;;
50333;Laerm;36239;48.132;-1.210;2024-02-26T05:11:29;38.48;34.31;45.97;;
50333;Laerm;36239;48.132;-1.210;2024-02-26T05:13:55;38.50;34.31;43.54;;
50333;Laerm;36239;48.132;-1.210;2024-02-26T05:16:21;39.19;34.31;45.36;;
50333;Laerm;36239;48.132;-1.210;2024-02-26T05:18:50;38.56;34.69;42.90;;
50333;Laerm;36239;48.132;-1.210;2024-02-26T05:21:16;39.21;35.04;49.58;;
50333;Laerm;36239;48.132;-1.210;2024-02-26T05:23:42;39.16;35.36;42.65;;
50333;Laerm;36239;48.132;-1.210;2024-02-26T05:26:09;39.15;34.31;43.44;;
50333;Laerm;36239;48.132;-1.210;2024-02-26T05:28:35;38.74;33.44;48.39;;
50333;Laerm;36239;48.132;-1.210;2024-02-26T05:31:02;39.39;35.36;43.58;;
50333;Laerm;36239;48.132;-1.210;2024-02-26T05:33:29;38.61;33.90;42.98;;
50333;Laerm;36239;48.132;-1.210;2024-02-26T05:35:55;38.72;33.44;42.53;;
50333;Laerm;36239;48.132;-1.210;2024-02-26T05:38:21;38.55;34.31;43.58;;
50333;Laerm;36239;48.132;-1.210;2024-02-26T05:40:47;39.56;35.04;47.83;;
50333;Laerm;36239;48.132;-1.210;2024-02-26T05:43:13;38.95;32.93;49.92;;
50333;Laerm;36239;48.132;-1.210;2024-02-26T05:45:41;41.04;34.69;58.92;;
50333;Laerm;36239;48.132;-1.210;2024-02-26T05:48:07;40.98;35.36;52.27;;
50333;Laerm;36239;48.132;-1.210;2024-02-26T05:50:33;39.03;35.94;41.61;;
50333;Laerm;36239;48.132;-1.210;2024-02-26T05:52:59;39.08;35.04;44.62;;
50333;Laerm;36239;48.132;-1.210;2024-02-26T05:55:25;39.58;35.36;43.04;;
50333;Laerm;36239;48.132;-1.210;2024-02-26T05:57:51;39.47;35.04;43.34;;
50333;Laerm;36239;48.132;-1.210;2024-02-26T06:00:17;39.87;36.45;42.98;;
50333;Laerm;36239;48.132;-1.210;2024-02-26T06:02:43;40.12;37.12;43.94;;
50333;Laerm;36239;48.132;-1.210;2024-02-26T06:05:09;41.52;37.32;49.06;;
50333;Laerm;36239;48.132;-1.210;2024-02-26T06:07:35;40.90;36.45;49.00;;
50333;Laerm;36239;48.132;-1.210;2024-02-26T06:10:01;41.46;36.69;57.67;;
50333;Laerm;36239;48.132;-1.210;2024-02-26T06:12:28;54.43;36.69;72.24;;
50333;Laerm;36239;48.132;-1.210;2024-02-26T06:14:56;41.42;36.91;56.72;;
50333;Laerm;36239;48.132;-1.210;2024-02-26T06:17:23;42.05;39.11;50.74;;
50333;Laerm;36239;48.132;-1.210;2024-02-26T06:19:49;46.75;41.06;65.02;;
50333;Laerm;36239;48.132;-1.210;2024-02-26T06:22:15;47.93;40.13;61.99;;
50333;Laerm;36239;48.132;-1.210;2024-02-26T06:24:41;66.15;42.29;82.14;;
50333;Laerm;36239;48.132;-1.210;2024-02-26T06:27:06;45.02;38.52;64.88;;
50333;Laerm;36239;48.132;-1.210;2024-02-26T06:29:32;51.28;40.23;73.23;;
50333;Laerm;36239;48.132;-1.210;2024-02-26T06:31:58;70.40;40.98;94.37;;
50333;Laerm;36239;48.132;-1.210;2024-02-26T06:34:24;72.62;41.53;97.36;;
50333;Laerm;36239;48.132;-1.210;2024-02-26T06:36:50;67.62;42.03;88.15;;
50333;Laerm;36239;48.132;-1.210;2024-02-26T06:39:16;62.84;42.53;90.12;;
50333;Laerm;36239;48.132;-1.210;2024-02-26T06:41:43;60.60;41.06;83.91;;
50333;Laerm;36239;48.132;-1.210;2024-02-26T06:44:10;66.56;41.61;95.01;;
50333;Laerm;36239;48.132;-1.210;2024-02-26T06:46:36;62.98;42.41;90.44;;
50333;Laerm;36239;48.132;-1.210;2024-02-26T06:49:02;54.60;43.19;80.38;;
50333;Laerm;36239;48.132;-1.210;2024-02-26T06:51:28;65.85;42.59;87.13;;
50333;Laerm;36239;48.132;-1.210;2024-02-26T06:53:54;69.18;41.68;93.22;;
50333;Laerm;36239;48.132;-1.210;2024-02-26T06:56:20;59.48;41.68;86.02;;
50333;Laerm;36239;48.132;-1.210;2024-02-26T06:58:46;64.07;41.38;92.69;;
50333;Laerm;36239;48.132;-1.210;2024-02-26T07:01:12;63.52;40.71;90.16;;
50333;Laerm;36239;48.132;-1.210;2024-02-26T07:03:40;68.14;39.92;92.81;;
50333;Laerm;36239;48.132;-1.210;2024-02-26T07:06:06;73.77;41.61;96.95;;
50333;Laerm;36239;48.132;-1.210;2024-02-26T07:08:32;69.15;42.76;94.73;;
50333;Laerm;36239;48.132;-1.210;2024-02-26T07:10:58;71.92;42.03;97.88;;
50333;Laerm;36239;48.132;-1.210;2024-02-26T07:13:24;69.86;42.16;95.47;;
50333;Laerm;36239;48.132;-1.210;2024-02-26T07:15:50;58.52;42.53;82.86;;
50333;Laerm;36239;48.132;-1.210;2024-02-26T07:18:16;70.46;42.76;92.52;;
50333;Laerm;36239;48.132;-1.210;2024-02-26T07:20:42;67.34;42.71;93.31;;
50333;Laerm;36239;48.132;-1.210;2024-02-26T07:23:08;61.25;42.71;85.07;;
50333;Laerm;36239;48.132;-1.210;2024-02-26T07:25:34;64.68;41.82;89.48;;
50333;Laerm;36239;48.132;-1.210;2024-02-26T07:28:01;59.42;41.61;82.26;;
50333;Laerm;36239;48.132;-1.210;2024-02-26T07:30:27;50.54;41.22;70.08;;
50333;Laerm;36239;48.132;-1.210;2024-02-26T07:32:53;53.41;41.46;80.71;;
50333;Laerm;36239;48.132;-1.210;2024-02-26T07:35:19;74.31;40.71;99.51;;
50333;Laerm;36239;48.132;-1.210;2024-02-26T07:37:47;65.06;42.65;86.75;;
50333;Laerm;36239;48.132;-1.210;2024-02-26T07:40:13;58.54;41.96;80.96;;
50333;Laerm;36239;48.132;-1.210;2024-02-26T07:42:39;67.24;41.33;91.64;;
50333;Laerm;36239;48.132;-1.210;2024-02-26T07:45:05;64.09;42.03;91.25;;
50333;Laerm;36239;48.132;-1.210;2024-02-26T07:47:31;72.69;42.53;104.32;;
50333;Laerm;36239;48.132;-1.210;2024-02-26T07:50:00;71.61;42.41;95.20;;
50333;Laerm;36239;48.132;-1.210;2024-02-26T07:52:26;64.92;41.75;88.66;;
50333;Laerm;36239;48.132;-1.210;2024-02-26T07:54:52;75.61;42.65;100.34;;
50333;Laerm;36239;48.132;-1.210;2024-02-26T07:57:18;72.26;41.68;94.77;;
50333;Laerm;36239;48.132;-1.210;2024-02-26T07:59:44;70.20;40.43;94.30;;
50333;Laerm;36239;48.132;-1.210;2024-02-26T08:02:10;54.70;41.06;80.44;;
50333;Laerm;36239;48.132;-1.210;2024-02-26T08:04:36;68.07;41.30;95.73;;
50333;Laerm;36239;48.132;-1.210;2024-02-26T08:07:02;68.85;42.29;96.31;;
50333;Laerm;36239;48.132;-1.210;2024-02-26T08:09:28;57.46;40.98;82.98;;
50333;Laerm;36239;48.132;-1.210;2024-02-26T08:11:54;68.33;39.92;91.23;;
50333;Laerm;36239;48.132;-1.210;2024-02-26T08:14:21;79.00;42.35;102.97;;
50333;Laerm;36239;48.132;-1.210;2024-02-26T08:16:47;73.45;42.09;99.47;;
50333;Laerm;36239;48.132;-1.210;2024-02-26T08:19:13;72.51;42.16;98.51;;
50333;Laerm;36239;48.132;-1.210;2024-02-26T08:21:41;65.81;42.35;89.58;;
50333;Laerm;36239;48.132;-1.210;2024-02-26T08:24:07;72.71;40.80;98.34;;
50333;Laerm;36239;48.132;-1.210;2024-02-26T08:26:33;75.65;40.71;101.42;;
50333;Laerm;36239;48.132;-1.210;2024-02-26T08:28:59;70.22;41.06;96.16;;
50333;Laerm;36239;48.132;-1.210;2024-02-26T08:31:25;75.80;40.03;99.08;;
50333;Laerm;36239;48.132;-1.210;2024-02-26T08:33:51;80.63;40.71;103.95;;
50333;Laerm;36239;48.132;-1.210;2024-02-26T08:36:17;69.05;40.71;95.09;;
50333;Laerm;36239;48.132;-1.210;2024-02-26T08:38:46;71.13;41.53;98.31;;
50333;Laerm;36239;48.132;-1.210;2024-02-26T08:41:12;71.57;42.47;95.25;;
50333;Laerm;36239;48.132;-1.210;2024-02-26T08:43:38;77.41;42.59;102.86;;
50333;Laerm;36239;48.132;-1.210;2024-02-26T08:46:08;75.43;42.35;98.37;;
50333;Laerm;36239;48.132;-1.210;2024-02-26T08:48:35;85.74;43.49;110.71;;
50333;Laerm;36239;48.132;-1.210;2024-02-26T08:51:04;79.20;41.22;105.53;;
50333;Laerm;36239;48.132;-1.210;2024-02-26T08:53:30;75.96;42.29;100.52;;
50333;Laerm;36239;48.132;-1.210;2024-02-26T08:55:56;83.64;42.59;108.28;;
50333;Laerm;36239;48.132;-1.210;2024-02-26T09:04:29;79.82;40.80;106.07;;
50333;Laerm;36239;48.132;-1.210;2024-02-26T09:06:55;72.61;42.53;95.65;;
50333;Laerm;36239;48.132;-1.210;2024-02-26T09:09:21;72.11;42.09;95.61;;
50333;Laerm;36239;48.132;-1.210;2024-02-26T09:11:48;84.16;41.82;110.03;;
50333;Laerm;36239;48.132;-1.210;2024-02-26T09:14:18;66.42;41.61;94.42;;
50333;Laerm;36239;48.132;-1.210;2024-02-26T09:16:44;71.76;41.22;93.38;;
50333;Laerm;36239;48.132;-1.210;2024-02-26T09:19:10;74.12;42.09;96.34;;
50333;Laerm;36239;48.132;-1.210;2024-02-26T09:21:36;75.71;41.89;98.52;;
50333;Laerm;36239;48.132;-1.210;2024-02-26T09:24:02;89.44;42.03;109.38;;
50333;Laerm;36239;48.132;-1.210;2024-02-26T09:26:28;72.70;42.03;98.52;;
50333;Laerm;36239;48.132;-1.210;2024-02-26T09:28:54;79.86;42.22;103.51;;
50333;Laerm;36239;48.132;-1.210;2024-02-26T09:31:20;78.91;43.09;101.48;;
50333;Laerm;36239;48.132;-1.210;2024-02-26T09:33:46;74.65;43.34;97.42;;
50333;Laerm;36239;48.132;-1.210;2024-02-26T09:36:12;74.57;43.24;98.44;;
50333;Laerm;36239;48.132;-1.210;2024-02-26T09:38:38;79.35;42.98;107.37;;
50333;Laerm;36239;48.132;-1.210;2024-02-26T09:41:05;78.40;42.98;102.02;;
50333;Laerm;36239;48.132;-1.210;2024-02-26T09:43:34;74.33;42.16;101.87;;
50333;Laerm;36239;48.132;-1.210;2024-02-26T09:46:01;82.75;42.64;109.30;;
50333;Laerm;36239;48.132;-1.210;2024-02-26T09:48:28;81.74;44.39;106.99;;
50333;Laerm;36239;48.132;-1.210;2024-02-26T09:50:55;80.21;43.04;103.74;;
50333;Laerm;36239;48.132;-1.210;2024-02-26T09:53:21;80.93;42.09;104.45;;
50333;Laerm;36239;48.132;-1.210;2024-02-26T09:55:47;72.60;41.68;100.19;;
50333;Laerm;36239;48.132;-1.210;2024-02-26T09:58:13;73.94;41.61;99.73;;
50333;Laerm;36239;48.132;-1.210;2024-02-26T10:00:46;71.26;42.22;96.45;;
50333;Laerm;36239;48.132;-1.210;2024-02-26T10:03:17;79.49;43.44;102.25;;
50333;Laerm;36239;48.132;-1.210;2024-02-26T10:05:47;74.81;42.03;97.49;;
50333;Laerm;36239;48.132;-1.210;2024-02-26T10:08:15;63.70;41.96;92.00;;
50333;Laerm;36239;48.132;-1.210;2024-02-26T10:10:41;80.47;42.22;104.79;;
50333;Laerm;36239;48.132;-1.210;2024-02-26T10:13:07;67.70;41.22;92.54;;
50333;Laerm;36239;48.132;-1.210;2024-02-26T10:15:36;69.08;41.22;94.22;;
50333;Laerm;36239;48.132;-1.210;2024-02-26T10:18:05;76.29;41.53;102.15;;
50333;Laerm;36239;48.132;-1.210;2024-02-26T10:20:31;74.54;42.76;101.05;;
50333;Laerm;36239;48.132;-1.210;2024-02-26T10:22:58;80.17;43.09;106.20;;
50333;Laerm;36239;48.132;-1.210;2024-02-26T10:25:24;78.92;42.93;102.49;;
50333;Laerm;36239;48.132;-1.210;2024-02-26T10:27:50;80.22;44.65;107.10;;
50333;Laerm;36239;48.132;-1.210;2024-02-26T10:30:16;86.49;43.86;110.42;;
50333;Laerm;36239;48.132;-1.210;2024-02-26T10:32:44;78.35;41.38;103.71;;
50333;Laerm;36239;48.132;-1.210;2024-02-26T10:35:11;75.56;43.04;99.80;;
50333;Laerm;36239;48.132;-1.210;2024-02-26T10:37:37;68.58;41.53;92.58;;
50333;Laerm;36239;48.132;-1.210;2024-02-26T10:40:03;75.70;42.09;100.56;;
50333;Laerm;36239;48.132;-1.210;2024-02-26T10:42:30;74.41;43.72;96.84;;
50333;Laerm;36239;48.132;-1.210;2024-02-26T10:44:57;86.59;44.47;110.29;;
50333;Laerm;36239;48.132;-1.210;2024-02-26T10:47:23;77.15;43.49;97.99;;
50333;Laerm;36239;48.132;-1.210;2024-02-26T10:49:50;72.06;42.03;96.40;;
50333;Laerm;36239;48.132;-1.210;2024-02-26T10:52:16;72.82;42.29;97.27;;
50333;Laerm;36239;48.132;-1.210;2024-02-26T10:54:45;69.71;42.03;94.30;;
50333;Laerm;36239;48.132;-1.210;2024-02-26T10:57:14;77.53;43.49;99.44;;
50333;Laerm;36239;48.132;-1.210;2024-02-26T10:59:42;83.65;44.73;105.84;;
50333;Laerm;36239;48.132;-1.210;2024-02-26T11:02:08;80.79;43.90;103.61;;
50333;Laerm;36239;48.132;-1.210;2024-02-26T11:04:36;81.25;44.11;104.77;;
50333;Laerm;36239;48.132;-1.210;2024-02-26T11:07:03;79.52;43.09;104.24;;
50333;Laerm;36239;48.132;-1.210;2024-02-26T11:09:30;77.05;44.11;101.40;;
50333;Laerm;36239;48.132;-1.210;2024-02-26T11:11:57;74.24;43.44;99.41;;
50333;Laerm;36239;48.132;-1.210;2024-02-26T11:14:25;77.71;43.77;107.05;;
50333;Laerm;36239;48.132;-1.210;2024-02-26T11:16:51;81.20;43.90;102.53;;
50333;Laerm;36239;48.132;-1.210;2024-02-26T11:19:18;84.60;42.79;110.58;;
50333;Laerm;36239;48.132;-1.210;2024-02-26T11:21:44;75.88;42.35;104.97;;
50333;Laerm;36239;48.132;-1.210;2024-02-26T11:24:12;80.13;42.47;101.67;;
50333;Laerm;36239;48.132;-1.210;2024-02-26T11:26:51;79.82;42.35;105.36;;
50333;Laerm;36239;48.132;-1.210;2024-02-26T11:29:25;72.12;43.19;100.34;;
50333;Laerm;36239;48.132;-1.210;2024-02-26T11:31:52;61.30;41.75;84.44;;
50333;Laerm;36239;48.132;-1.210;2024-02-26T11:34:18;79.74;42.98;105.72;;
50333;Laerm;36239;48.132;-1.210;2024-02-26T11:36:45;72.68;42.76;96.90;;
50333;Laerm;36239;48.132;-1.210;2024-02-26T11:39:12;76.81;43.81;98.14;;
50333;Laerm;36239;48.132;-1.210;2024-02-26T11:41:38;82.73;44.90;105.80;;
50333;Laerm;36239;48.132;-1.210;2024-02-26T11:44:04;72.97;43.72;97.11;;
50333;Laerm;36239;48.132;-1.210;2024-02-26T11:46:33;90.30;44.80;115.36;;
50333;Laerm;36239;48.132;-1.210;2024-02-26T11:49:00;81.14;43.86;106.27;;
50333;Laerm;36239;48.132;-1.210;2024-02-26T11:51:27;78.37;42.76;102.81;;
50333;Laerm;36239;48.132;-1.210;2024-02-26T11:53:54;74.08;43.19;97.62;;
50333;Laerm;36239;48.132;-1.210;2024-02-26T11:56:22;70.30;42.47;95.15;;
50333;Laerm;36239;48.132;-1.210;2024-02-26T11:58:53;66.49;40.71;89.35;;
50333;Laerm;36239;48.132;-1.210;2024-02-26T12:06:42;79.12;43.29;105.09;;
50333;Laerm;36239;48.132;-1.210;2024-02-26T12:09:08;81.45;44.80;104.84;;
50333;Laerm;36239;48.132;-1.210;2024-02-26T12:11:39;77.11;43.54;101.11;;
50333;Laerm;36239;48.132;-1.210;2024-02-26T12:14:05;76.81;44.31;101.66;;
50333;Laerm;36239;48.132;-1.210;2024-02-26T12:16:39;83.96;43.72;108.24;;
50333;Laerm;36239;48.132;-1.210;2024-02-26T12:19:06;85.67;44.27;109.27;;
50333;Laerm;36239;48.132;-1.210;2024-02-26T12:21:35;89.16;44.65;110.93;;
50333;Laerm;36239;48.132;-1.210;2024-02-26T12:24:14;83.82;45.72;105.91;;
50333;Laerm;36239;48.132;-1.210;2024-02-26T12:26:43;80.42;43.90;104.64;;
50333;Laerm;36239;48.132;-1.210;2024-02-26T12:29:10;81.59;43.44;106.38;;
50333;Laerm;36239;48.132;-1.210;2024-02-26T12:31:36;77.31;44.54;99.46;;
50333;Laerm;36239;48.132;-1.210;2024-02-26T12:34:03;78.30;45.51;103.35;;
50333;Laerm;36239;48.132;-1.210;2024-02-26T12:36:30;84.92;44.94;107.66;;
50333;Laerm;36239;48.132;-1.210;2024-02-26T12:38:56;84.44;45.97;107.73;;
50333;Laerm;36239;48.132;-1.210;2024-02-26T12:41:22;76.66;44.87;103.09;;
50333;Laerm;36239;48.132;-1.210;2024-02-26T12:43:48;75.34;45.57;97.60;;
50333;Laerm;36239;48.132;-1.210;2024-02-26T12:46:15;75.08;43.81;96.70;;
50333;Laerm;36239;48.132;-1.210;2024-02-26T12:48:42;83.37;45.30;104.61;;
50333;Laerm;36239;48.132;-1.210;2024-02-26T12:51:09;82.84;44.87;105.00;;
50333;Laerm;36239;48.132;-1.210;2024-02-26T12:53:36;76.71;44.23;100.59;;
50333;Laerm;36239;48.132;-1.210;2024-02-26T12:56:03;85.98;45.97;108.25;;
50333;Laerm;36239;48.132;-1.210;2024-02-26T12:58:29;79.17;44.51;104.15;;
50333;Laerm;36239;48.132;-1.210;2024-02-26T13:00:56;73.35;44.39;94.73;;
50333;Laerm;36239;48.132;-1.210;2024-02-26T13:03:22;88.35;45.27;110.46;;
50333;Laerm;36239;48.132;-1.210;2024-02-26T13:05:48;76.70;44.58;101.69;;
50333;Laerm;36239;48.132;-1.210;2024-02-26T13:08:18;82.87;45.46;103.46;;
50333;Laerm;36239;48.132;-1.210;2024-02-26T13:10:47;89.71;46.48;112.03;;
50333;Laerm;36239;48.132;-1.210;2024-02-26T13:13:17;76.25;45.77;103.84;;
50333;Laerm;36239;48.132;-1.210;2024-02-26T13:15:43;75.00;44.43;101.99;;
50333;Laerm;36239;48.132;-1.210;2024-02-26T13:18:10;84.61;44.19;109.26;;
50333;Laerm;36239;48.132;-1.210;2024-02-26T13:20:36;74.46;44.39;103.78;;
50333;Laerm;36239;48.132;-1.210;2024-02-26T13:23:03;82.55;44.27;108.96;;
50333;Laerm;36239;48.132;-1.210;2024-02-26T13:25:30;78.89;44.94;107.32;;
50333;Laerm;36239;48.132;-1.210;2024-02-26T13:28:09;86.78;44.43;113.20;;
50333;Laerm;36239;48.132;-1.210;2024-02-26T13:30:35;82.62;44.80;107.72;;
50333;Laerm;36239;48.132;-1.210;2024-02-26T13:33:09;85.32;44.83;107.25;;
50333;Laerm;36239;48.132;-1.210;2024-02-26T13:35:35;90.60;45.07;113.95;;
50333;Laerm;36239;48.132;-1.210;2024-02-26T13:38:02;86.27;44.47;108.30;;